createdAt,value
2017-09-07T00:00:30.641Z,98566.25
2017-09-07T00:02:59.030Z,98566.38
2017-09-07T00:05:27.353Z,98565.34
2017-09-07T00:07:55.696Z,98566.07
2017-09-07T00:10:24.041Z,98563.75
2017-09-07T00:12:52.374Z,98565.67
2017-09-07T00:16:00.824Z,98559.09
2017-09-07T00:18:29.919Z,98561.70
2017-09-07T00:20:59.050Z,98558.77
2017-09-07T00:23:27.364Z,98558.58
2017-09-07T00:25:56.095Z,98557.05
2017-09-07T00:28:24.443Z,98550.05
2017-09-07T00:30:52.782Z,98543.46
2017-09-07T00:33:21.151Z,98544.70
2017-09-07T00:35:49.476Z,98539.66
2017-09-07T00:38:17.841Z,98538.92
2017-09-07T00:40:48.117Z,98536.39
2017-09-07T00:43:17.223Z,98527.41
2017-09-07T00:45:45.565Z,98532.04
2017-09-07T00:48:13.898Z,98528.41
2017-09-07T00:50:42.265Z,98525.26
2017-09-07T00:53:10.594Z,98527.32
2017-09-07T00:55:39.882Z,98524.44
2017-09-07T00:58:08.331Z,98536.33
2017-09-07T01:00:36.676Z,98532.14
2017-09-07T01:03:05.795Z,98526.77
2017-09-07T01:05:36.213Z,98526.81
2017-09-07T01:08:05.343Z,98527.48
2017-09-07T01:10:33.674Z,98526.12
2017-09-07T01:13:02.021Z,98529.95
2017-09-07T01:15:30.347Z,98532.06
2017-09-07T01:17:59.496Z,98535.59
2017-09-07T01:20:27.838Z,98537.11
2017-09-07T01:22:56.165Z,98538.80
2017-09-07T01:25:24.499Z,98531.12
2017-09-07T01:27:53.097Z,98529.72
2017-09-07T01:30:21.455Z,98531.73
2017-09-07T01:32:49.762Z,98529.73
2017-09-07T01:35:18.110Z,98523.66
2017-09-07T01:37:47.227Z,98520.08
2017-09-07T01:40:15.686Z,98522.30
2017-09-07T01:42:44.046Z,98522.16
2017-09-07T01:45:12.371Z,98519.44
2017-09-07T01:47:40.709Z,98515.88
2017-09-07T01:50:09.032Z,98519.22
2017-09-07T01:52:37.366Z,98521.14
2017-09-07T01:55:05.704Z,98516.81
2017-09-07T01:57:34.034Z,98517.05
2017-09-07T02:00:02.378Z,98521.02
2017-09-07T02:02:30.698Z,98513.97
2017-09-07T02:04:59.066Z,98514.84
2017-09-07T02:07:28.158Z,98512.69
2017-09-07T02:09:56.617Z,98516.77
2017-09-07T02:12:24.968Z,98506.08
2017-09-07T02:14:53.297Z,98514.34
2017-09-07T02:17:22.435Z,98506.28
2017-09-07T02:19:50.770Z,98509.98
2017-09-07T02:22:19.114Z,98501.68
2017-09-07T02:24:47.454Z,98500.66
2017-09-07T02:27:15.802Z,98497.91
2017-09-07T02:29:44.139Z,98498.89
2017-09-07T02:32:12.451Z,98495.09
2017-09-07T02:34:42.290Z,98490.34
2017-09-07T02:37:10.607Z,98487.91
2017-09-07T02:39:38.944Z,98489.63
2017-09-07T02:42:08.048Z,98479.00
2017-09-07T02:44:36.656Z,98480.00
2017-09-07T02:47:05.011Z,98491.09
2017-09-07T02:49:34.149Z,98480.07
2017-09-07T02:52:02.526Z,98476.22
2017-09-07T02:54:30.853Z,98480.21
2017-09-07T02:56:59.981Z,98476.82
2017-09-07T02:59:28.453Z,98474.53
2017-09-07T03:01:57.849Z,98472.80
2017-09-07T03:04:26.181Z,98475.22
2017-09-07T03:06:55.263Z,98481.53
2017-09-07T03:09:23.622Z,98476.78
2017-09-07T03:11:51.945Z,98479.18
2017-09-07T03:14:20.282Z,98480.49
2017-09-07T03:16:48.602Z,98479.78
2017-09-07T03:19:16.953Z,98480.47
2017-09-07T03:21:45.288Z,98477.36
2017-09-07T03:24:13.608Z,98470.76
2017-09-07T03:26:41.935Z,98469.85
2017-09-07T03:29:10.268Z,98470.76
2017-09-07T03:31:38.912Z,98465.01
2017-09-07T03:34:08.031Z,98462.78
2017-09-07T03:36:36.364Z,98457.02
2017-09-07T03:39:04.694Z,98458.84
2017-09-07T03:41:33.768Z,98450.34
2017-09-07T03:44:02.102Z,98448.92
2017-09-07T03:46:30.441Z,98450.14
2017-09-07T03:48:59.844Z,98457.52
2017-09-07T03:51:28.164Z,98447.44
2017-09-07T03:53:56.482Z,98448.05
2017-09-07T03:56:24.828Z,98446.13
2017-09-07T03:58:53.138Z,98448.25
2017-09-07T04:01:21.466Z,98444.48
2017-09-07T04:03:49.780Z,98446.44
2017-09-07T04:06:18.379Z,98448.53
2017-09-07T04:08:47.097Z,98447.92
2017-09-07T04:11:15.414Z,98439.05
2017-09-07T04:13:43.757Z,98447.23
2017-09-07T04:16:12.092Z,98453.59
2017-09-07T04:18:41.940Z,98447.42
2017-09-07T04:21:10.356Z,98444.80
2017-09-07T04:23:39.008Z,98448.25
2017-09-07T04:26:08.089Z,98441.17
2017-09-07T04:28:37.068Z,98446.33
2017-09-07T04:31:05.406Z,98438.39
2017-09-07T04:33:33.733Z,98440.72
2017-09-07T04:36:03.287Z,98446.09
2017-09-07T04:38:31.616Z,98440.41
2017-09-07T04:41:01.046Z,98437.39
2017-09-07T04:43:29.375Z,98432.20
2017-09-07T04:45:57.690Z,98433.70
2017-09-07T04:48:26.820Z,98425.34
2017-09-07T04:50:55.190Z,98428.89
2017-09-07T04:53:24.287Z,98432.47
2017-09-07T04:55:52.623Z,98426.98
2017-09-07T04:58:20.994Z,98431.44
2017-09-07T05:00:49.336Z,98434.34
2017-09-07T05:03:17.668Z,98429.56
2017-09-07T05:05:46.005Z,98430.80
2017-09-07T05:08:14.336Z,98426.05
2017-09-07T05:10:42.684Z,98435.24
2017-09-07T05:13:11.018Z,98437.77
2017-09-07T05:15:39.369Z,98441.72
2017-09-07T05:18:07.706Z,98437.58
2017-09-07T05:20:36.034Z,98442.16
2017-09-07T05:23:04.384Z,98444.58
2017-09-07T05:25:32.702Z,98443.25
2017-09-07T05:28:01.794Z,98446.70
2017-09-07T05:30:30.882Z,98437.48
2017-09-07T05:32:59.487Z,98447.11
2017-09-07T05:35:27.829Z,98449.34
2017-09-07T05:37:56.167Z,98446.09
2017-09-07T05:40:24.522Z,98448.73
2017-09-07T05:42:53.624Z,98450.03
2017-09-07T05:45:21.965Z,98446.39
2017-09-07T05:47:50.304Z,98441.37
2017-09-07T05:50:18.650Z,98440.88
2017-09-07T05:52:47.001Z,98437.94
2017-09-07T05:55:15.333Z,98439.67
2017-09-07T05:57:43.675Z,98442.52
2017-09-07T06:00:12.003Z,98436.35
2017-09-07T06:02:40.334Z,98447.88
2017-09-07T06:05:08.663Z,98452.14
2017-09-07T06:07:37.019Z,98454.27
2017-09-07T06:10:05.392Z,98453.45
2017-09-07T06:12:34.489Z,98455.77
2017-09-07T06:15:03.590Z,98456.49
2017-09-07T06:17:32.654Z,98449.70
2017-09-07T06:20:02.004Z,98457.50
2017-09-07T06:22:30.349Z,98451.55
2017-09-07T06:24:58.700Z,98455.58
2017-09-07T06:27:27.042Z,98459.17
2017-09-07T06:29:55.356Z,98449.92
2017-09-07T06:32:23.703Z,98457.81
2017-09-07T06:34:52.023Z,98448.14
2017-09-07T06:37:20.735Z,98452.50
2017-09-07T06:39:49.064Z,98452.69
2017-09-07T06:42:17.405Z,98452.81
2017-09-07T06:44:46.524Z,98452.00
2017-09-07T06:47:14.843Z,98459.98
2017-09-07T06:49:43.184Z,98461.11
2017-09-07T06:52:11.586Z,98460.80
2017-09-07T06:54:39.922Z,98463.73
2017-09-07T06:57:09.031Z,98465.45
2017-09-07T06:59:37.363Z,98466.27
2017-09-07T07:02:05.717Z,98462.80
2017-09-07T07:04:34.084Z,98462.38
2017-09-07T07:07:02.436Z,98463.41
2017-09-07T07:09:30.824Z,98457.23
2017-09-07T07:11:59.142Z,98453.85
2017-09-07T07:14:27.478Z,98457.02
2017-09-07T07:16:55.808Z,98464.38
2017-09-07T07:19:24.154Z,98465.39
2017-09-07T07:21:52.484Z,98461.87
2017-09-07T07:24:20.822Z,98462.52
2017-09-07T07:26:49.225Z,98461.02
2017-09-07T07:29:17.543Z,98458.50
2017-09-07T07:31:46.654Z,98462.36
2017-09-07T07:34:14.984Z,98460.95
2017-09-07T07:36:43.693Z,98464.11
2017-09-07T07:39:12.043Z,98459.50
2017-09-07T07:41:40.359Z,98463.72
2017-09-07T07:44:09.471Z,98463.13
2017-09-07T07:46:37.787Z,98461.71
2017-09-07T07:49:06.127Z,98463.85
2017-09-07T07:51:34.465Z,98458.75
2017-09-07T07:54:02.806Z,98456.63
2017-09-07T07:56:31.127Z,98460.70
2017-09-07T07:58:59.507Z,98465.96
2017-09-07T08:01:27.846Z,98464.31
2017-09-07T08:03:56.176Z,98465.94
2017-09-07T08:06:24.527Z,98465.91
2017-09-07T08:08:52.925Z,98464.16
2017-09-07T08:11:21.293Z,98461.99
2017-09-07T08:13:49.649Z,98472.10
2017-09-07T08:16:17.963Z,98470.77
2017-09-07T08:18:47.118Z,98471.34
2017-09-07T08:21:15.438Z,98473.91
2017-09-07T08:23:43.791Z,98471.81
2017-09-07T08:26:12.120Z,98476.45
2017-09-07T08:28:41.507Z,98468.19
2017-09-07T08:31:09.848Z,98473.27
2017-09-07T08:33:38.167Z,98470.88
2017-09-07T08:36:06.733Z,98467.11
2017-09-07T08:38:35.057Z,98465.16
2017-09-07T08:41:03.400Z,98464.17
2017-09-07T08:43:31.732Z,98470.67
2017-09-07T08:46:00.072Z,98465.28
2017-09-07T08:48:28.408Z,98465.97
2017-09-07T08:50:57.256Z,98466.72
2017-09-07T08:53:25.588Z,98466.16
2017-09-07T08:55:53.902Z,98470.39
2017-09-07T08:58:22.241Z,98467.41
2017-09-07T09:00:50.579Z,98467.17
2017-09-07T09:03:18.944Z,98463.24
2017-09-07T09:05:47.285Z,98459.05
2017-09-07T09:08:15.653Z,98462.48
2017-09-07T09:10:43.994Z,98465.81
2017-09-07T09:13:12.311Z,98461.17
2017-09-07T09:15:40.647Z,98462.22
2017-09-07T09:18:09.740Z,98461.17
2017-09-07T09:20:38.090Z,98458.08
2017-09-07T09:23:06.429Z,98456.41
2017-09-07T09:25:35.203Z,98457.41
2017-09-07T09:28:03.542Z,98452.89
2017-09-07T09:30:31.895Z,98453.87
2017-09-07T09:33:00.576Z,98446.55
2017-09-07T09:35:28.900Z,98448.69
2017-09-07T09:37:57.249Z,98448.06
2017-09-07T09:40:25.585Z,98442.01
2017-09-07T09:42:54.473Z,98442.78
2017-09-07T09:45:22.815Z,98435.66
2017-09-07T09:47:51.150Z,98439.58
2017-09-07T09:50:19.512Z,98434.39
2017-09-07T09:52:48.616Z,98429.16
2017-09-07T09:55:16.959Z,98430.54
2017-09-07T09:57:45.284Z,98431.17
2017-09-07T10:00:14.060Z,98435.14
2017-09-07T10:02:42.371Z,98431.09
2017-09-07T10:05:10.701Z,98425.91
2017-09-07T10:07:39.799Z,98428.55
2017-09-07T10:10:08.135Z,98428.81
2017-09-07T10:12:37.543Z,98426.76
2017-09-07T10:15:05.919Z,98421.83
2017-09-07T10:17:34.285Z,98421.73
2017-09-07T10:20:02.603Z,98422.20
2017-09-07T10:22:30.961Z,98410.48
2017-09-07T10:24:59.316Z,98411.40
2017-09-07T10:27:28.381Z,98413.94
2017-09-07T10:29:56.714Z,98412.36
2017-09-07T10:32:25.036Z,98406.80
2017-09-07T10:34:54.434Z,98403.84
2017-09-07T10:37:22.781Z,98401.66
2017-09-07T10:39:51.120Z,98400.39
2017-09-07T10:42:19.463Z,98400.17
2017-09-07T10:44:47.783Z,98392.64
2017-09-07T10:47:16.154Z,98394.20
2017-09-07T10:49:44.489Z,98395.80
2017-09-07T10:52:12.828Z,98393.97
2017-09-07T10:54:41.183Z,98389.02
2017-09-07T10:57:09.500Z,98382.91
2017-09-07T10:59:37.849Z,98383.39
2017-09-07T11:02:06.182Z,98383.98
2017-09-07T11:04:34.541Z,98383.16
2017-09-07T11:07:02.871Z,98382.33
2017-09-07T11:09:31.747Z,98376.56
2017-09-07T11:12:00.080Z,98376.27
2017-09-07T11:14:28.406Z,98377.27
2017-09-07T11:16:56.765Z,98372.54
2017-09-07T11:19:25.090Z,98375.92
2017-09-07T11:21:54.212Z,98375.17
2017-09-07T11:24:22.534Z,98368.61
2017-09-07T11:26:50.871Z,98362.34
2017-09-07T11:29:19.220Z,98373.86
2017-09-07T11:31:48.316Z,98370.06
2017-09-07T11:34:17.440Z,98369.20
2017-09-07T11:36:45.793Z,98367.28
2017-09-07T11:39:14.153Z,98367.77
2017-09-07T11:41:42.488Z,98367.93
2017-09-07T11:44:10.833Z,98363.02
2017-09-07T11:46:39.200Z,98364.13
2017-09-07T11:49:08.295Z,98362.56
2017-09-07T11:51:36.643Z,98349.54
2017-09-07T11:54:04.967Z,98352.58
2017-09-07T11:56:34.997Z,98350.31
2017-09-07T11:59:03.330Z,98350.39
2017-09-07T12:01:31.644Z,98348.71
2017-09-07T12:04:00.009Z,98353.53
2017-09-07T12:06:28.344Z,98357.02
2017-09-07T12:08:56.700Z,98343.63
2017-09-07T12:11:25.026Z,98344.31
2017-09-07T12:13:53.952Z,98347.49
2017-09-07T12:16:22.271Z,98348.39
2017-09-07T12:18:50.614Z,98362.91
2017-09-07T12:21:19.723Z,98353.84
2017-09-07T12:23:48.061Z,98353.44
2017-09-07T12:26:16.412Z,98352.44
2017-09-07T12:28:44.765Z,98352.44
2017-09-07T12:31:13.111Z,98349.27
2017-09-07T12:33:42.239Z,98350.08
2017-09-07T12:36:10.571Z,98342.04
2017-09-07T12:38:38.941Z,98334.81
2017-09-07T12:41:07.296Z,98338.73
2017-09-07T12:43:35.623Z,98330.32
2017-09-07T12:46:04.734Z,98333.66
2017-09-07T12:48:33.070Z,98329.98
2017-09-07T12:51:01.432Z,98326.89
2017-09-07T12:53:29.782Z,98330.35
2017-09-07T12:55:58.168Z,98328.08
2017-09-07T12:58:26.533Z,98328.41
2017-09-07T13:00:55.621Z,98324.38
2017-09-07T13:03:23.974Z,98318.34
2017-09-07T13:05:52.322Z,98320.41
2017-09-07T13:08:20.716Z,98317.05
2017-09-07T13:10:49.467Z,98317.84
2017-09-07T13:13:17.815Z,98315.56
2017-09-07T13:15:46.166Z,98311.81
2017-09-07T13:18:14.511Z,98308.40
2017-09-07T13:20:43.163Z,98310.75
2017-09-07T13:23:12.256Z,98306.70
2017-09-07T13:25:40.600Z,98308.95
2017-09-07T13:28:08.950Z,98307.20
2017-09-07T13:30:37.284Z,98304.28
2017-09-07T13:33:05.627Z,98290.56
2017-09-07T13:35:33.959Z,98288.01
2017-09-07T13:38:02.302Z,98277.69
2017-09-07T13:40:30.644Z,98277.33
2017-09-07T13:42:58.974Z,98285.18
2017-09-07T13:45:27.326Z,98283.67
2017-09-07T13:47:55.664Z,98283.55
2017-09-07T13:50:24.764Z,98271.91
2017-09-07T13:52:53.105Z,98280.02
2017-09-07T13:55:21.428Z,98276.33
2017-09-07T13:57:50.555Z,98278.69
2017-09-07T14:00:18.894Z,98280.48
2017-09-07T14:02:47.268Z,98285.57
2017-09-07T14:05:15.619Z,98278.77
2017-09-07T14:07:43.988Z,98281.64
2017-09-07T14:10:12.335Z,98279.24
2017-09-07T14:12:40.661Z,98278.66
2017-09-07T14:15:09.016Z,98269.23
2017-09-07T14:17:37.358Z,98265.70
2017-09-07T14:20:06.118Z,98263.42
2017-09-07T14:22:34.467Z,98267.42
2017-09-07T14:25:02.796Z,98262.72
2017-09-07T14:27:31.143Z,98262.06
2017-09-07T14:30:00.104Z,98254.70
2017-09-07T14:32:28.734Z,98258.94
2017-09-07T14:34:57.073Z,98255.52
2017-09-07T14:37:25.396Z,98254.34
2017-09-07T14:39:53.742Z,98254.19
2017-09-07T14:42:22.066Z,98253.88
2017-09-07T14:44:50.411Z,98256.94
2017-09-07T14:47:19.120Z,98250.94
2017-09-07T14:49:47.801Z,98248.19
2017-09-07T14:52:16.151Z,98245.05
2017-09-07T14:54:44.484Z,98240.69
2017-09-07T14:57:12.848Z,98245.84
2017-09-07T14:59:41.183Z,98245.92
2017-09-07T15:02:09.549Z,98248.63
2017-09-07T15:04:37.870Z,98248.19
2017-09-07T15:07:06.231Z,98239.34
2017-09-07T15:09:34.572Z,98240.33
2017-09-07T15:12:02.898Z,98238.43
2017-09-07T15:14:31.245Z,98239.30
2017-09-07T15:16:59.580Z,98240.78
2017-09-07T15:19:27.947Z,98240.61
2017-09-07T15:22:05.430Z,98248.53
2017-09-07T15:24:34.251Z,98256.04
2017-09-07T15:27:02.589Z,98255.48
2017-09-07T15:29:30.946Z,98258.43
2017-09-07T15:31:59.296Z,98262.85
2017-09-07T15:34:28.404Z,98268.30
2017-09-07T15:36:57.944Z,98262.55
2017-09-07T15:39:27.219Z,98260.93
2017-09-07T15:41:57.265Z,98261.36
2017-09-07T15:44:25.592Z,98256.83
2017-09-07T15:46:53.931Z,98259.81
2017-09-07T15:49:22.314Z,98257.97
2017-09-07T15:51:50.647Z,98261.39
2017-09-07T15:54:19.774Z,98254.65
2017-09-07T15:56:48.160Z,98262.26
2017-09-07T15:59:16.522Z,98259.61
2017-09-07T16:01:44.892Z,98247.93
2017-09-07T16:04:13.246Z,98256.13
2017-09-07T16:06:41.602Z,98247.27
2017-09-07T16:09:09.926Z,98253.55
2017-09-07T16:11:39.050Z,98255.95
2017-09-07T16:14:07.382Z,98263.45
2017-09-07T16:16:36.045Z,98262.19
2017-09-07T16:21:32.135Z,98257.27
2017-09-07T16:24:01.254Z,98248.52
2017-09-07T16:26:29.575Z,98242.42
2017-09-07T16:28:57.921Z,98241.79
2017-09-07T16:31:27.212Z,98234.61
2017-09-07T16:33:55.545Z,98234.97
2017-09-07T16:36:23.905Z,98230.34
2017-09-07T16:38:53.157Z,98225.63
2017-09-07T16:41:21.496Z,98219.02
2017-09-07T16:43:49.830Z,98220.80
2017-09-07T16:46:18.168Z,98217.27
2017-09-07T16:48:46.580Z,98231.83
2017-09-07T16:51:14.928Z,98221.41
2017-09-07T16:53:43.626Z,98223.63
2017-09-07T16:56:11.980Z,98220.93
2017-09-07T16:58:48.404Z,98221.02
2017-09-07T17:01:17.044Z,98225.20
2017-09-07T17:03:45.681Z,98225.41
2017-09-07T17:06:14.012Z,98226.16
2017-09-07T17:08:42.346Z,98226.87
2017-09-07T17:11:10.695Z,98231.33
2017-09-07T17:13:39.031Z,98227.31
2017-09-07T17:16:07.639Z,98224.30
2017-09-07T17:18:35.964Z,98225.58
2017-09-07T17:21:04.294Z,98222.88
2017-09-07T17:23:33.494Z,98222.66
2017-09-07T17:26:01.839Z,98225.20
2017-09-07T17:28:30.208Z,98224.56
2017-09-07T17:30:58.532Z,98224.44
2017-09-07T17:33:27.429Z,98229.38
2017-09-07T17:35:58.442Z,98233.80
2017-09-07T17:38:26.776Z,98234.88
2017-09-07T17:40:55.132Z,98236.05
2017-09-07T17:43:23.767Z,98235.50
2017-09-07T17:45:53.648Z,98238.88
2017-09-07T17:48:22.028Z,98238.96
2017-09-07T17:50:50.416Z,98237.85
2017-09-07T17:53:18.942Z,98233.78
2017-09-07T17:55:47.285Z,98239.97
2017-09-07T17:58:15.636Z,98237.92
2017-09-07T18:00:43.965Z,98237.73
2017-09-07T18:03:12.323Z,98234.41
2017-09-07T18:05:40.648Z,98236.34
2017-09-07T18:08:10.932Z,98240.26
2017-09-07T18:10:39.290Z,98233.25
2017-09-07T18:13:08.585Z,98232.48
2017-09-07T18:15:37.765Z,98229.17
2017-09-07T18:18:07.562Z,98221.86
2017-09-07T18:20:35.917Z,98219.38
2017-09-07T18:23:04.742Z,98214.03
2017-09-07T18:25:33.097Z,98219.58
2017-09-07T18:28:01.440Z,98219.73
2017-09-07T18:30:30.397Z,98220.62
2017-09-07T18:32:58.742Z,98221.00
2017-09-07T18:35:27.095Z,98224.55
2017-09-07T18:37:55.720Z,98223.94
2017-09-07T18:40:24.087Z,98229.02
2017-09-07T18:42:52.485Z,98227.30
2017-09-07T18:45:21.744Z,98223.28
2017-09-07T18:47:50.094Z,98234.41
2017-09-07T18:50:18.477Z,98229.42
2017-09-07T18:52:47.579Z,98229.11
2017-09-07T18:55:16.993Z,98228.14
2017-09-07T18:57:54.715Z,98226.37
2017-09-07T19:00:23.100Z,98226.20
2017-09-07T19:02:51.444Z,98221.04
2017-09-07T19:05:20.683Z,98223.97
2017-09-07T19:07:49.062Z,98226.14
2017-09-07T19:10:17.404Z,98220.92
2017-09-07T19:12:46.516Z,98225.03
2017-09-07T19:15:14.857Z,98220.84
2017-09-07T19:17:43.764Z,98225.34
2017-09-07T19:20:12.861Z,98221.98
2017-09-07T19:22:41.361Z,98224.69
2017-09-07T19:25:09.770Z,98226.42
2017-09-07T19:27:38.130Z,98232.41
2017-09-07T19:30:06.909Z,98241.28
2017-09-07T19:32:36.011Z,98238.34
2017-09-07T19:35:04.340Z,98230.99
2017-09-07T19:37:33.460Z,98238.53
2017-09-07T19:40:02.606Z,98237.52
2017-09-07T19:42:30.948Z,98238.63
2017-09-07T19:45:00.058Z,98234.79
2017-09-07T19:47:28.464Z,98235.50
2017-09-07T19:49:56.801Z,98233.56
2017-09-07T19:52:25.423Z,98228.90
2017-09-07T19:54:53.740Z,98231.94
2017-09-07T19:57:22.059Z,98240.86
2017-09-07T19:59:51.173Z,98243.34
2017-09-07T20:02:20.374Z,98244.89
2017-09-07T20:04:48.778Z,98229.84
2017-09-07T20:07:17.140Z,98233.55
2017-09-07T20:09:45.803Z,98240.27
2017-09-07T20:12:14.185Z,98233.80
2017-09-07T20:14:42.575Z,98236.30
2017-09-07T20:17:10.915Z,98229.27
2017-09-07T20:19:39.250Z,98238.95
2017-09-07T20:22:08.494Z,98237.25
2017-09-07T20:24:36.850Z,98243.04
2017-09-07T20:27:05.467Z,98240.70
2017-09-07T20:29:33.792Z,98237.09
2017-09-07T20:32:02.187Z,98241.14
2017-09-07T20:34:30.556Z,98233.88
2017-09-07T20:37:02.125Z,98230.25
2017-09-07T20:39:30.505Z,98224.00
2017-09-07T20:41:58.855Z,98224.67
2017-09-07T20:44:28.455Z,98218.08
2017-09-07T20:46:56.797Z,98220.23
2017-09-07T20:49:25.146Z,98219.33
2017-09-07T20:51:53.510Z,98214.62
2017-09-07T20:54:21.833Z,98212.02
2017-09-07T20:56:50.183Z,98207.93
2017-09-07T20:59:18.515Z,98210.30
2017-09-07T21:01:47.015Z,98206.00
2017-09-07T21:04:15.421Z,98209.37
2017-09-07T21:06:43.750Z,98207.96
2017-09-07T21:09:12.863Z,98201.27
2017-09-07T21:11:42.939Z,98202.61
2017-09-07T21:14:11.292Z,98191.02
2017-09-07T21:16:39.635Z,98195.07
2017-09-07T21:19:07.985Z,98185.30
2017-09-07T21:21:36.507Z,98183.98
2017-09-07T21:24:06.663Z,98177.45
2017-09-07T21:26:35.037Z,98174.00
2017-09-07T21:29:03.384Z,98164.56
2017-09-07T21:31:32.509Z,98162.55
2017-09-07T21:34:00.855Z,98143.70
2017-09-07T21:36:29.983Z,98137.28
2017-09-07T21:38:58.330Z,98133.39
2017-09-07T21:41:26.663Z,98131.96
2017-09-07T21:43:54.999Z,98138.80
2017-09-07T21:46:24.102Z,98132.81
2017-09-07T21:48:54.626Z,98136.00
2017-09-07T21:51:22.953Z,98141.94
2017-09-07T21:53:51.279Z,98146.04
2017-09-07T21:56:20.387Z,98151.12
2017-09-07T21:58:48.710Z,98149.45
2017-09-07T22:01:17.070Z,98146.45
2017-09-07T22:03:45.452Z,98146.08
2017-09-07T22:06:14.047Z,98139.38
2017-09-07T22:08:42.363Z,98141.85
2017-09-07T22:11:10.698Z,98142.28
2017-09-07T22:13:39.062Z,98140.53
2017-09-07T22:16:07.397Z,98134.09
2017-09-07T22:18:35.739Z,98134.23
2017-09-07T22:21:04.072Z,98143.47
2017-09-07T22:23:34.030Z,98137.72
2017-09-07T22:26:02.356Z,98132.95
2017-09-07T22:28:30.735Z,98134.70
2017-09-07T22:30:59.853Z,98129.00
2017-09-07T22:33:28.198Z,98124.59
2017-09-07T22:35:56.786Z,98128.17
2017-09-07T22:38:25.178Z,98127.30
2017-09-07T22:40:54.560Z,98127.16
2017-09-07T22:43:22.900Z,98123.95
2017-09-07T22:45:52.185Z,98127.60
2017-09-07T22:48:20.572Z,98124.14
2017-09-07T22:50:48.912Z,98120.39
2017-09-07T22:53:17.247Z,98109.64
2017-09-07T22:55:46.344Z,98108.70
2017-09-07T22:58:15.104Z,98106.72
2017-09-07T23:00:44.095Z,98104.11
2017-09-07T23:03:12.456Z,98102.41
2017-09-07T23:05:41.551Z,98106.14
2017-09-07T23:08:10.663Z,98109.75
2017-09-07T23:10:39.785Z,98106.69
2017-09-07T23:13:08.127Z,98099.84
2017-09-07T23:15:36.468Z,98101.16
2017-09-07T23:18:04.805Z,98103.02
2017-09-07T23:20:33.909Z,98098.66
2017-09-07T23:23:02.268Z,98097.23
2017-09-07T23:25:31.467Z,98097.88
2017-09-07T23:28:00.898Z,98086.98
2017-09-07T23:30:29.218Z,98090.23
2017-09-07T23:32:57.530Z,98080.72
2017-09-07T23:35:27.531Z,98078.63
2017-09-07T23:37:55.875Z,98079.42
2017-09-07T23:40:24.214Z,98070.95
2017-09-07T23:42:53.294Z,98071.86
2017-09-07T23:45:21.639Z,98067.94
2017-09-07T23:47:49.972Z,98062.45
2017-09-07T23:50:19.104Z,98061.86
2017-09-07T23:52:47.450Z,98060.55
2017-09-07T23:55:16.534Z,98053.27
2017-09-07T23:57:44.875Z,98048.63
